Time;durP1;ratioP1;P1;durP2;ratioP2;P2;SDS_P1;SDS_P2;PMS_P1;PMS_P2;Temp;Humidity;BMP_temperature;BMP_pressure;BME280_temperature;BME280_humidity;BME280_pressure;Samples;Min_cycle;Max_cycle;Signal;HPM_P1;HPM_P2
2023/02/11 00:00:00;;;;;;;;;;;-0.70;1.00;;;;;;5086726;28;19916;-78
2023/02/11 00:02:28;;;;;;;;;;;-0.60;1.00;;;;;;5084087;28;19924;-78
2023/02/11 00:04:54;;;;;;;;;;;-0.50;1.00;;;;;;5086646;28;19924;-76
2023/02/11 00:07:20;;;;;;;;;;;-0.50;1.00;;;;;;5082825;28;19912;-78
2023/02/11 00:09:46;;;;;;;;;;;-0.40;1.00;;;;;;5081941;28;19918;-76
2023/02/11 00:12:12;;;;;;;;;;;-0.30;1.00;;;;;;5081291;28;19916;-76
2023/02/11 00:14:38;;;;;;;;;;;-0.30;1.00;;;;;;5082830;28;20030;-78
2023/02/11 00:17:04;;;;;;;;;;;-0.20;1.00;;;;;;5079644;28;20285;-76
2023/02/11 00:19:29;;;;;;;;;;;-0.10;1.00;;;;;;5085286;28;19916;-76
2023/02/11 00:21:55;;;;;;;;;;;0.00;1.00;;;;;;5081130;28;19951;-76
2023/02/11 00:24:24;;;;;;;;;;;0.00;1.00;;;;;;5080396;28;19913;-77
2023/02/11 00:26:50;;;;;;;;;;;0.00;1.00;;;;;;5083656;28;19908;-77
2023/02/11 00:29:16;;;;;;;;;;;0.00;1.00;;;;;;5083606;28;19916;-77
2023/02/11 00:31:42;;;;;;;;;;;0.10;1.00;;;;;;5093973;28;19931;-78
2023/02/11 00:34:08;;;;;;;;;;;0.00;1.00;;;;;;5075984;28;20047;-78
2023/02/11 00:36:34;;;;;;;;;;;0.10;1.00;;;;;;5084957;28;19999;-76
2023/02/11 00:39:00;;;;;;;;;;;0.10;1.00;;;;;;5080421;28;19999;-77
2023/02/11 00:41:27;;;;;;;;;;;0.10;1.00;;;;;;5085095;28;19912;-77
2023/02/11 00:43:53;;;;;;;;;;;0.10;1.00;;;;;;5092107;28;20376;-77
2023/02/11 00:46:19;;;;;;;;;;;0.10;1.00;;;;;;5079217;28;19920;-78
2023/02/11 00:48:45;;;;;;;;;;;0.10;1.00;;;;;;5073110;28;19920;-77
2023/02/11 00:51:11;;;;;;;;;;;0.10;1.00;;;;;;5075807;28;19920;-78
2023/02/11 00:53:37;;;;;;;;;;;0.10;1.00;;;;;;5094939;28;19916;-77
2023/02/11 00:56:04;;;;;;;;;;;0.00;1.00;;;;;;5090531;28;19908;-76
2023/02/11 00:58:30;;;;;;;;;;;0.00;1.00;;;;;;5085188;28;19912;-76
2023/02/11 01:00:58;;;;;;;;;;;-0.10;1.00;;;;;;5082003;28;19920;-77
2023/02/11 01:03:24;;;;;;;;;;;-0.10;1.00;;;;;;5087102;28;19916;-78
2023/02/11 01:05:50;;;;;;;;;;;-0.10;1.00;;;;;;5084728;28;19916;-76
2023/02/11 01:08:16;;;;;;;;;;;-0.10;1.00;;;;;;5083351;28;19942;-76
2023/02/11 01:10:42;;;;;;;;;;;0.00;1.00;;;;;;5082603;28;19917;-76
2023/02/11 01:13:08;;;;;;;;;;;-0.10;1.00;;;;;;5102373;27;19924;-77
2023/02/11 01:15:34;;;;;;;;;;;-0.10;1.00;;;;;;5083880;28;19912;-76
2023/02/11 01:18:01;;;;;;;;;;;0.00;1.00;;;;;;5088813;28;19955;-77
2023/02/11 01:20:27;;;;;;;;;;;0.00;1.00;;;;;;5080497;28;19916;-77
2023/02/11 01:22:53;;;;;;;;;;;0.00;1.00;;;;;;5090514;28;19920;-76
2023/02/11 01:25:19;;;;;;;;;;;0.00;1.00;;;;;;5079720;28;19908;-76
2023/02/11 01:27:45;;;;;;;;;;;0.00;1.00;;;;;;5081688;28;19919;-76
2023/02/11 01:30:13;;;;;;;;;;;0.00;1.00;;;;;;5083638;28;19963;-76
2023/02/11 01:32:39;;;;;;;;;;;0.10;1.00;;;;;;5081949;28;19924;-77
2023/02/11 01:35:05;;;;;;;;;;;0.10;1.00;;;;;;5086069;28;19950;-78
2023/02/11 01:37:32;;;;;;;;;;;0.20;1.00;;;;;;5079975;28;20300;-78
2023/02/11 01:39:58;;;;;;;;;;;0.20;1.00;;;;;;5096185;27;19913;-78
2023/02/11 01:42:24;;;;;;;;;;;0.20;1.00;;;;;;5087879;28;19957;-79
2023/02/11 01:44:51;;;;;;;;;;;0.20;1.00;;;;;;5076144;28;19921;-78
2023/02/11 01:47:17;;;;;;;;;;;0.20;1.00;;;;;;5116443;27;19916;-78
2023/02/11 01:49:52;;;;;;;;;;;0.20;1.00;;;;;;5077976;27;19920;-78
2023/02/11 01:52:24;;;;;;;;;;;0.20;1.00;;;;;;5095278;28;19920;-78
2023/02/11 01:57:51;;;;;;;;;;;0.20;1.00;;;;;;5091012;28;19919;-75
2023/02/11 02:00:20;;;;;;;;;;;0.20;1.00;;;;;;5071972;28;19927;-78
2023/02/11 02:03:06;;;;;;;;;;;0.20;1.00;;;;;;5090917;28;20394;-78
2023/02/11 02:05:41;;;;;;;;;;;0.10;1.00;;;;;;5083819;28;20293;-78
2023/02/11 02:08:10;;;;;;;;;;;0.20;1.00;;;;;;5082617;28;20380;-75
2023/02/11 02:10:39;;;;;;;;;;;0.20;1.00;;;;;;5090181;28;19920;-78
2023/02/11 02:13:05;;;;;;;;;;;0.10;1.00;;;;;;5085152;28;19919;-78
2023/02/11 02:15:32;;;;;;;;;;;0.10;1.00;;;;;;5089479;28;19911;-78
2023/02/11 02:18:13;;;;;;;;;;;0.00;1.00;;;;;;5087886;28;19915;-78
2023/02/11 02:20:42;;;;;;;;;;;0.00;1.00;;;;;;5081773;28;19912;-78
2023/02/11 02:23:08;;;;;;;;;;;0.00;1.00;;;;;;5079544;28;19909;-76
2023/02/11 02:25:34;;;;;;;;;;;-0.10;1.00;;;;;;5083389;28;19912;-78
2023/02/11 02:28:19;;;;;;;;;;;0.00;1.00;;;;;;5079009;28;20208;-76
2023/02/11 02:30:51;;;;;;;;;;;0.00;1.00;;;;;;5077947;28;19928;-78
2023/02/11 02:33:22;;;;;;;;;;;0.00;1.00;;;;;;5084874;28;19916;-76
2023/02/11 02:35:48;;;;;;;;;;;0.10;1.00;;;;;;5082718;28;19916;-76
2023/02/11 02:38:22;;;;;;;;;;;0.10;1.00;;;;;;5081718;28;19939;-76
2023/02/11 02:41:07;;;;;;;;;;;0.10;1.00;;;;;;5068574;28;19919;-75
2023/02/11 02:43:34;;;;;;;;;;;0.10;1.00;;;;;;5075266;28;19919;-76
2023/02/11 02:46:18;;;;;;;;;;;0.10;1.00;;;;;;5074518;28;20139;-77
2023/02/11 02:48:44;;;;;;;;;;;0.10;1.00;;;;;;5082862;28;19912;-75
2023/02/11 02:51:16;;;;;;;;;;;0.00;1.00;;;;;;5075821;28;19919;-76
2023/02/11 02:53:48;;;;;;;;;;;0.10;1.00;;;;;;5081959;28;19923;-76
2023/02/11 02:56:20;;;;;;;;;;;0.00;1.00;;;;;;5077481;28;20280;-76
2023/02/11 02:58:46;;;;;;;;;;;0.00;1.00;;;;;;5081656;28;19923;-76
2023/02/11 03:01:20;;;;;;;;;;;0.00;1.00;;;;;;5079607;28;20319;-76
2023/02/11 03:04:05;;;;;;;;;;;0.00;1.00;;;;;;5090385;28;20399;-76
2023/02/11 03:06:34;;;;;;;;;;;0.00;1.00;;;;;;5084737;28;19920;-76
2023/02/11 03:09:08;;;;;;;;;;;0.10;1.00;;;;;;5080369;28;19913;-76
2023/02/11 03:11:35;;;;;;;;;;;0.00;1.00;;;;;;5071209;28;20292;-76
2023/02/11 03:14:02;;;;;;;;;;;0.00;1.00;;;;;;5089000;28;20407;-76
2023/02/11 03:16:29;;;;;;;;;;;0.10;1.00;;;;;;5085325;28;19923;-76
2023/02/11 03:19:04;;;;;;;;;;;0.00;1.00;;;;;;5095023;28;19908;-76
2023/02/11 03:21:35;;;;;;;;;;;0.00;1.00;;;;;;5081455;28;20380;-76
2023/02/11 03:24:04;;;;;;;;;;;0.00;1.00;;;;;;5083432;28;20393;-76
2023/02/11 03:26:36;;;;;;;;;;;0.10;1.00;;;;;;5078663;28;19912;-76
2023/02/11 03:29:13;;;;;;;;;;;0.10;1.00;;;;;;5096519;28;20245;-76
2023/02/11 03:31:43;;;;;;;;;;;0.10;1.00;;;;;;5083227;28;19921;-77
2023/02/11 03:34:22;;;;;;;;;;;0.10;1.00;;;;;;5082487;28;20269;-76
2023/02/11 03:36:55;;;;;;;;;;;0.00;1.00;;;;;;5088355;28;19912;-76
2023/02/11 03:39:24;;;;;;;;;;;0.00;1.00;;;;;;5093952;28;19912;-76
2023/02/11 03:41:51;;;;;;;;;;;0.00;1.00;;;;;;5082610;28;19912;-76
2023/02/11 03:44:18;;;;;;;;;;;0.00;1.00;;;;;;5084567;28;19916;-76
2023/02/11 03:46:47;;;;;;;;;;;0.00;1.00;;;;;;5082104;28;19920;-76
2023/02/11 03:49:16;;;;;;;;;;;0.10;1.00;;;;;;5094254;28;19912;-76
2023/02/11 03:51:42;;;;;;;;;;;0.00;1.00;;;;;;5082600;28;19916;-76
2023/02/11 03:54:14;;;;;;;;;;;0.00;1.00;;;;;;5096262;28;19912;-76
2023/02/11 03:56:45;;;;;;;;;;;0.10;1.00;;;;;;5086923;28;19916;-76
2023/02/11 03:59:11;;;;;;;;;;;0.10;1.00;;;;;;5082278;28;19913;-76
2023/02/11 04:01:37;;;;;;;;;;;0.10;1.00;;;;;;5082546;28;20030;-77
2023/02/11 04:04:03;;;;;;;;;;;0.20;1.00;;;;;;5080874;28;20596;-75
2023/02/11 04:06:29;;;;;;;;;;;0.20;1.00;;;;;;5083332;28;19913;-76
2023/02/11 04:08:55;;;;;;;;;;;0.20;1.00;;;;;;5088369;28;19916;-76
2023/02/11 04:11:21;;;;;;;;;;;0.20;1.00;;;;;;5080653;28;20414;-76
2023/02/11 04:13:47;;;;;;;;;;;0.30;1.00;;;;;;5084039;28;20335;-76
2023/02/11 04:16:13;;;;;;;;;;;0.30;1.00;;;;;;5087320;28;19916;-75
2023/02/11 04:18:39;;;;;;;;;;;0.40;1.00;;;;;;5089262;28;19924;-76
2023/02/11 04:21:05;;;;;;;;;;;0.30;1.00;;;;;;5091700;28;19963;-75
2023/02/11 04:23:31;;;;;;;;;;;0.30;1.00;;;;;;5089750;28;19968;-76
2023/02/11 04:25:57;;;;;;;;;;;0.30;1.00;;;;;;5093199;28;19912;-76
2023/02/11 04:28:25;;;;;;;;;;;0.20;1.00;;;;;;5087159;28;19918;-76
2023/02/11 04:30:51;;;;;;;;;;;0.20;1.00;;;;;;5086477;28;19923;-76
2023/02/11 04:33:17;;;;;;;;;;;0.10;1.00;;;;;;5069525;28;20360;-76
2023/02/11 04:35:43;;;;;;;;;;;0.00;1.00;;;;;;5085302;28;19961;-76
2023/02/11 04:38:09;;;;;;;;;;;0.00;1.00;;;;;;5089029;28;19919;-76
2023/02/11 04:40:35;;;;;;;;;;;0.00;1.00;;;;;;5083151;28;20002;-75
2023/02/11 04:43:01;;;;;;;;;;;0.00;1.00;;;;;;5082197;28;20349;-76
2023/02/11 04:45:27;;;;;;;;;;;0.00;1.00;;;;;;5082123;28;19913;-76
2023/02/11 04:47:53;;;;;;;;;;;0.00;1.00;;;;;;5086432;28;19912;-77
2023/02/11 04:50:19;;;;;;;;;;;0.00;1.00;;;;;;5081144;28;19920;-77
2023/02/11 04:52:45;;;;;;;;;;;-0.10;1.00;;;;;;5083718;28;20411;-77
2023/02/11 04:55:12;;;;;;;;;;;-0.10;1.00;;;;;;5081891;28;19912;-77
2023/02/11 04:57:38;;;;;;;;;;;-0.20;1.00;;;;;;5081626;28;20272;-76
2023/02/11 05:00:04;;;;;;;;;;;-0.20;1.00;;;;;;5086942;28;19919;-76
2023/02/11 05:02:30;;;;;;;;;;;-0.20;1.00;;;;;;5073746;28;20296;-75
2023/02/11 05:04:56;;;;;;;;;;;-0.20;1.00;;;;;;5093883;28;19917;-76
2023/02/11 05:07:22;;;;;;;;;;;-0.20;1.00;;;;;;5086102;28;19909;-76
2023/02/11 05:09:48;;;;;;;;;;;-0.20;1.00;;;;;;5086613;28;19927;-75
2023/02/11 05:12:14;;;;;;;;;;;-0.30;1.00;;;;;;5081587;28;19939;-76
2023/02/11 05:14:40;;;;;;;;;;;-0.30;1.00;;;;;;5083961;28;20319;-77
2023/02/11 05:17:06;;;;;;;;;;;-0.40;1.00;;;;;;5085194;28;19912;-77
2023/02/11 05:19:32;;;;;;;;;;;-0.40;1.00;;;;;;5086838;28;20374;-76
2023/02/11 05:21:58;;;;;;;;;;;-0.40;1.00;;;;;;5083527;27;19909;-76
2023/02/11 05:24:24;;;;;;;;;;;-0.30;1.00;;;;;;5077772;28;19912;-77
2023/02/11 05:26:50;;;;;;;;;;;-0.30;1.00;;;;;;5084555;28;20018;-77
2023/02/11 05:29:16;;;;;;;;;;;-0.30;1.00;;;;;;5080644;28;19921;-77
2023/02/11 05:31:42;;;;;;;;;;;-0.20;1.00;;;;;;5083093;28;19925;-77
2023/02/11 05:34:08;;;;;;;;;;;-0.20;1.00;;;;;;5086211;28;20373;-77
2023/02/11 05:36:34;;;;;;;;;;;-0.20;1.00;;;;;;5081542;28;20410;-77
2023/02/11 05:39:00;;;;;;;;;;;-0.20;1.00;;;;;;5083184;28;20385;-77
2023/02/11 05:41:26;;;;;;;;;;;-0.20;1.00;;;;;;5081187;28;19970;-77
2023/02/11 05:43:52;;;;;;;;;;;-0.10;1.00;;;;;;5078709;28;19968;-77
2023/02/11 05:46:18;;;;;;;;;;;-0.10;1.00;;;;;;5089129;28;19973;-77
2023/02/11 05:48:44;;;;;;;;;;;-0.10;1.00;;;;;;5078134;28;19912;-77
2023/02/11 05:51:10;;;;;;;;;;;-0.10;1.00;;;;;;5080547;28;19920;-77
2023/02/11 05:53:36;;;;;;;;;;;-0.10;1.00;;;;;;5078342;28;19916;-77
2023/02/11 05:56:02;;;;;;;;;;;0.00;1.00;;;;;;5085365;28;19912;-78
2023/02/11 05:58:28;;;;;;;;;;;-0.10;1.00;;;;;;5090544;28;19920;-77
2023/02/11 06:00:54;;;;;;;;;;;-0.10;1.00;;;;;;5076739;28;19920;-76
2023/02/11 06:03:19;;;;;;;;;;;0.00;1.00;;;;;;5076769;28;20466;-76
2023/02/11 06:05:46;;;;;;;;;;;0.00;1.00;;;;;;5083070;28;19919;-77
2023/02/11 06:08:12;;;;;;;;;;;0.00;1.00;;;;;;5079489;28;19912;-77
2023/02/11 06:10:38;;;;;;;;;;;0.00;1.00;;;;;;5083658;28;19967;-76
2023/02/11 06:13:04;;;;;;;;;;;0.10;1.00;;;;;;5088557;28;19936;-78
2023/02/11 06:15:30;;;;;;;;;;;0.10;1.00;;;;;;5079444;28;19912;-77
2023/02/11 06:17:55;;;;;;;;;;;0.20;1.00;;;;;;5084696;28;19912;-76
2023/02/11 06:20:21;;;;;;;;;;;0.20;1.00;;;;;;5083057;28;19913;-77
2023/02/11 06:22:47;;;;;;;;;;;0.20;1.00;;;;;;5086304;28;19916;-77
2023/02/11 06:25:13;;;;;;;;;;;0.20;1.00;;;;;;5089919;28;19911;-77
2023/02/11 06:27:40;;;;;;;;;;;0.20;1.00;;;;;;5088665;28;20361;-77
2023/02/11 06:30:06;;;;;;;;;;;0.10;1.00;;;;;;5082455;28;20272;-78
2023/02/11 06:32:32;;;;;;;;;;;0.10;1.00;;;;;;5085451;28;19920;-77
2023/02/11 06:34:59;;;;;;;;;;;0.10;1.00;;;;;;5081647;28;19919;-77
2023/02/11 06:37:25;;;;;;;;;;;0.00;1.00;;;;;;5089698;28;19912;-77
2023/02/11 06:39:51;;;;;;;;;;;0.00;1.00;;;;;;5089324;28;20276;-76
2023/02/11 06:42:17;;;;;;;;;;;-0.10;1.00;;;;;;5081270;28;19965;-77
2023/02/11 06:44:43;;;;;;;;;;;-0.10;1.00;;;;;;5080654;28;19912;-77
2023/02/11 06:47:09;;;;;;;;;;;-0.10;1.00;;;;;;5081169;28;20270;-77
2023/02/11 06:49:35;;;;;;;;;;;-0.10;1.00;;;;;;5081741;28;19909;-77
2023/02/11 06:52:02;;;;;;;;;;;-0.10;1.00;;;;;;5087231;28;19916;-77
2023/02/11 06:54:28;;;;;;;;;;;-0.10;1.00;;;;;;5077193;28;19932;-77
2023/02/11 06:56:54;;;;;;;;;;;-0.10;1.00;;;;;;5081088;28;19919;-77
2023/02/11 06:59:20;;;;;;;;;;;-0.10;1.00;;;;;;5080967;28;20369;-77
2023/02/11 07:01:46;;;;;;;;;;;-0.10;1.00;;;;;;5081064;28;19920;-78
2023/02/11 07:04:13;;;;;;;;;;;-0.10;1.00;;;;;;5078721;28;19916;-77
2023/02/11 07:06:40;;;;;;;;;;;0.00;1.00;;;;;;5081902;28;19917;-78
2023/02/11 07:09:06;;;;;;;;;;;0.00;1.00;;;;;;5080708;28;19931;-77
2023/02/11 07:11:32;;;;;;;;;;;0.10;1.00;;;;;;5080124;28;19916;-77
2023/02/11 07:14:00;;;;;;;;;;;0.10;1.00;;;;;;5080350;28;19928;-77
2023/02/11 07:16:26;;;;;;;;;;;0.20;1.00;;;;;;5062936;28;19932;-75
2023/02/11 07:18:52;;;;;;;;;;;0.20;1.00;;;;;;5068921;28;20426;-78
2023/02/11 07:21:19;;;;;;;;;;;0.20;1.00;;;;;;5082389;28;19912;-77
2023/02/11 07:23:45;;;;;;;;;;;0.30;1.00;;;;;;5077355;28;19908;-78
2023/02/11 07:26:13;;;;;;;;;;;0.40;1.00;;;;;;5079760;28;19916;-77
2023/02/11 07:28:39;;;;;;;;;;;0.50;1.00;;;;;;5077934;28;19913;-78
2023/02/11 07:31:09;;;;;;;;;;;0.50;1.00;;;;;;5077078;28;20354;-79
2023/02/11 07:33:36;;;;;;;;;;;0.60;1.00;;;;;;5083381;28;19924;-78
2023/02/11 07:36:03;;;;;;;;;;;0.60;1.00;;;;;;5087734;28;19913;-78
2023/02/11 07:38:30;;;;;;;;;;;0.60;1.00;;;;;;5084842;28;19909;-78
2023/02/11 07:40:58;;;;;;;;;;;0.60;1.00;;;;;;5078894;28;20392;-78
2023/02/11 07:43:24;;;;;;;;;;;0.60;1.00;;;;;;5114870;27;19908;-78
2023/02/11 07:45:50;;;;;;;;;;;0.70;1.00;;;;;;5087768;28;19991;-78
2023/02/11 07:48:16;;;;;;;;;;;0.70;1.00;;;;;;5074361;28;19916;-78
2023/02/11 07:50:42;;;;;;;;;;;0.80;1.00;;;;;;5083535;28;19908;-78
2023/02/11 07:53:08;;;;;;;;;;;0.80;1.00;;;;;;5081880;28;19916;-78
2023/02/11 07:55:34;;;;;;;;;;;0.90;1.00;;;;;;5118928;27;20313;-78
2023/02/11 07:58:00;;;;;;;;;;;1.00;1.00;;;;;;5079996;28;20317;-77
2023/02/11 08:00:26;;;;;;;;;;;1.20;1.00;;;;;;5080035;28;19912;-78
2023/02/11 08:02:52;;;;;;;;;;;1.30;1.00;;;;;;5083907;28;19928;-79
2023/02/11 08:05:18;;;;;;;;;;;1.50;1.00;;;;;;5090919;28;19919;-78
2023/02/11 08:07:44;;;;;;;;;;;1.70;1.00;;;;;;5085439;28;19974;-78
2023/02/11 08:10:10;;;;;;;;;;;1.80;1.00;;;;;;5085590;28;19995;-79
2023/02/11 08:12:36;;;;;;;;;;;1.90;1.00;;;;;;5079937;28;19916;-79
2023/02/11 08:15:02;;;;;;;;;;;1.90;1.00;;;;;;5079510;28;20007;-78
2023/02/11 08:17:28;;;;;;;;;;;2.00;1.00;;;;;;5080897;28;19931;-80
2023/02/11 08:19:54;;;;;;;;;;;2.10;1.00;;;;;;5085516;28;19999;-83
2023/02/11 08:22:20;;;;;;;;;;;2.30;1.00;;;;;;5080448;28;19915;-82
2023/02/11 08:24:46;;;;;;;;;;;2.30;1.00;;;;;;5087626;28;20404;-83
2023/02/11 08:27:12;;;;;;;;;;;2.60;99.90;;;;;;5083032;28;19916;-77
2023/02/11 08:29:38;;;;;;;;;;;2.70;99.90;;;;;;5080479;28;19920;-78
2023/02/11 08:32:04;;;;;;;;;;;3.00;99.90;;;;;;5089768;28;20288;-78
2023/02/11 08:34:30;;;;;;;;;;;3.20;99.90;;;;;;5087136;28;19927;-78
2023/02/11 08:36:56;;;;;;;;;;;3.30;99.90;;;;;;5129207;27;19913;-78
2023/02/11 08:39:22;;;;;;;;;;;3.40;99.90;;;;;;5080376;28;20004;-77
2023/02/11 08:41:49;;;;;;;;;;;3.50;99.90;;;;;;5083171;28;20012;-78
2023/02/11 08:44:16;;;;;;;;;;;3.60;99.90;;;;;;5084018;28;19908;-78
2023/02/11 08:46:42;;;;;;;;;;;3.70;99.90;;;;;;5093034;28;19919;-78
2023/02/11 08:49:08;;;;;;;;;;;3.90;99.90;;;;;;5077403;28;19919;-78
2023/02/11 08:51:34;;;;;;;;;;;4.10;99.90;;;;;;5085222;28;20015;-77
2023/02/11 08:54:00;;;;;;;;;;;4.30;99.90;;;;;;5079616;28;19970;-78
2023/02/11 08:56:27;;;;;;;;;;;4.30;99.90;;;;;;5084798;28;20258;-77
2023/02/11 08:58:53;;;;;;;;;;;4.30;99.90;;;;;;5081302;28;20250;-77
2023/02/11 09:01:23;;;;;;;;;;;4.20;99.90;;;;;;5081472;28;19928;-79
2023/02/11 09:03:49;;;;;;;;;;;4.30;99.90;;;;;;5086837;28;19917;-77
2023/02/11 09:06:17;;;;;;;;;;;4.30;99.90;;;;;;5081676;28;19923;-77
2023/02/11 09:08:44;;;;;;;;;;;4.30;99.90;;;;;;5088117;28;19909;-77
2023/02/11 09:11:10;;;;;;;;;;;4.40;99.90;;;;;;5078089;28;19916;-78
2023/02/11 09:13:36;;;;;;;;;;;4.50;99.90;;;;;;5086105;28;19916;-77
2023/02/11 09:16:03;;;;;;;;;;;4.50;99.90;;;;;;5083551;28;19913;-77
2023/02/11 09:18:30;;;;;;;;;;;4.50;99.90;;;;;;5076264;28;19919;-77
2023/02/11 09:21:06;;;;;;;;;;;4.70;99.90;;;;;;5076739;28;19913;-78
2023/02/11 09:23:33;;;;;;;;;;;4.90;99.90;;;;;;5082774;28;19927;-78
2023/02/11 09:26:06;;;;;;;;;;;5.00;99.90;;;;;;5084102;28;19916;-78
2023/02/11 09:28:32;;;;;;;;;;;5.10;99.90;;;;;;5075291;28;19919;-78
2023/02/11 09:30:58;;;;;;;;;;;5.20;99.90;;;;;;5085419;28;19913;-78
2023/02/11 09:33:24;;;;;;;;;;;5.10;99.90;;;;;;5093280;27;19928;-78
2023/02/11 09:35:50;;;;;;;;;;;5.10;99.90;;;;;;5084577;28;19908;-79
2023/02/11 09:38:16;;;;;;;;;;;5.20;99.90;;;;;;5085241;28;19920;-78
2023/02/11 09:40:45;;;;;;;;;;;5.40;99.90;;;;;;5089183;28;20434;-78
2023/02/11 09:43:16;;;;;;;;;;;5.50;99.90;;;;;;5082898;28;19920;-78
2023/02/11 09:45:42;;;;;;;;;;;5.60;99.90;;;;;;5103638;27;19912;-78
2023/02/11 09:48:16;;;;;;;;;;;5.80;99.90;;;;;;5092891;28;19916;-77
2023/02/11 09:50:50;;;;;;;;;;;5.90;99.90;;;;;;5086056;28;19919;-81
2023/02/11 09:53:24;;;;;;;;;;;6.00;99.90;;;;;;5094504;28;20402;-81
2023/02/11 09:55:54;;;;;;;;;;;6.00;99.90;;;;;;5095391;28;19912;-84
2023/02/11 09:58:23;;;;;;;;;;;6.00;99.90;;;;;;5094739;28;19930;-82
2023/02/11 10:00:59;;;;;;;;;;;6.00;99.90;;;;;;5093964;28;19926;-82
2023/02/11 10:03:25;;;;;;;;;;;5.90;99.90;;;;;;5093579;28;19916;-82
2023/02/11 10:06:07;;;;;;;;;;;5.90;99.90;;;;;;5092698;28;20053;-81
2023/02/11 10:08:39;;;;;;;;;;;6.10;99.90;;;;;;5104501;28;20011;-81
2023/02/11 10:11:20;;;;;;;;;;;6.10;99.90;;;;;;5079327;28;20272;-80
2023/02/11 10:13:56;;;;;;;;;;;6.10;99.90;;;;;;5084545;28;19916;-80
2023/02/11 10:16:22;;;;;;;;;;;6.20;99.90;;;;;;5079337;28;20304;-78
2023/02/11 10:18:51;;;;;;;;;;;6.30;99.90;;;;;;5082696;28;19952;-78
2023/02/11 10:21:35;;;;;;;;;;;6.40;99.90;;;;;;5070289;28;20353;-78
2023/02/11 10:24:04;;;;;;;;;;;6.40;99.90;;;;;;5079344;28;19919;-78
2023/02/11 10:26:31;;;;;;;;;;;6.40;99.90;;;;;;5083160;28;19912;-77
2023/02/11 10:29:00;;;;;;;;;;;6.30;99.90;;;;;;5078470;28;19919;-78
2023/02/11 10:31:27;;;;;;;;;;;6.40;99.90;;;;;;5089490;28;20392;-78
2023/02/11 10:34:12;;;;;;;;;;;6.50;99.90;;;;;;5079838;28;19921;-77
2023/02/11 10:36:39;;;;;;;;;;;6.70;99.90;;;;;;5081360;28;19916;-78
2023/02/11 10:39:10;;;;;;;;;;;6.70;99.90;;;;;;5087474;28;19916;-82
2023/02/11 10:41:39;;;;;;;;;;;6.70;99.90;;;;;;5078081;28;19913;-80
2023/02/11 10:44:06;;;;;;;;;;;6.80;99.90;;;;;;5087198;28;19908;-79
2023/02/11 10:46:35;;;;;;;;;;;6.60;99.90;;;;;;5083442;28;19916;-75
2023/02/11 10:49:02;;;;;;;;;;;6.50;99.90;;;;;;5083743;28;19912;-77
2023/02/11 10:51:30;;;;;;;;;;;6.50;99.90;;;;;;5078517;28;19920;-79
2023/02/11 10:54:02;;;;;;;;;;;6.40;99.90;;;;;;5083392;28;20369;-77
2023/02/11 10:56:30;;;;;;;;;;;6.60;99.90;;;;;;5085704;28;19916;-77
2023/02/11 10:59:18;;;;;;;;;;;6.80;99.90;;;;;;5087232;28;19920;-77
2023/02/11 11:01:49;;;;;;;;;;;6.80;99.90;;;;;;5075275;28;19920;-76
2023/02/11 11:04:32;;;;;;;;;;;6.70;99.90;;;;;;5079720;28;19923;-79
2023/02/11 11:07:13;;;;;;;;;;;6.80;99.90;;;;;;5083768;28;20022;-77
2023/02/11 11:09:45;;;;;;;;;;;6.80;99.90;;;;;;5085386;28;19916;-78
2023/02/11 11:12:25;;;;;;;;;;;7.00;99.90;;;;;;5088715;28;19916;-74
2023/02/11 11:14:55;;;;;;;;;;;7.10;99.90;;;;;;5080152;28;19923;-75
2023/02/11 11:17:21;;;;;;;;;;;7.30;99.90;;;;;;5083080;28;19913;-77
2023/02/11 11:19:47;;;;;;;;;;;7.40;99.90;;;;;;5076893;28;19916;-75
2023/02/11 11:22:21;;;;;;;;;;;7.40;99.90;;;;;;5082365;28;19912;-75
2023/02/11 11:24:53;;;;;;;;;;;7.30;99.90;;;;;;5088237;28;19920;-78
2023/02/11 11:27:23;;;;;;;;;;;7.40;99.90;;;;;;5083839;28;19939;-76
2023/02/11 11:29:50;;;;;;;;;;;7.40;99.90;;;;;;5081239;28;19923;-76
2023/02/11 11:32:21;;;;;;;;;;;7.20;99.90;;;;;;5084999;28;20277;-77
2023/02/11 11:34:52;;;;;;;;;;;7.10;99.90;;;;;;5082173;28;19920;-77
2023/02/11 11:37:21;;;;;;;;;;;7.10;99.90;;;;;;5078940;28;19924;-78
2023/02/11 11:39:51;;;;;;;;;;;7.20;99.90;;;;;;5082187;28;20273;-77
2023/02/11 11:42:25;;;;;;;;;;;7.20;99.90;;;;;;5080693;28;19912;-80
2023/02/11 11:44:58;;;;;;;;;;;7.30;99.90;;;;;;5079364;28;19912;-79
2023/02/11 11:47:28;;;;;;;;;;;7.50;99.90;;;;;;5086058;28;19916;-77
2023/02/11 11:50:12;;;;;;;;;;;7.60;99.90;;;;;;5089327;28;19919;-77
2023/02/11 11:52:41;;;;;;;;;;;7.70;99.90;;;;;;5076109;28;19927;-77
2023/02/11 11:55:14;;;;;;;;;;;7.70;99.90;;;;;;5090882;28;19917;-77
2023/02/11 11:57:40;;;;;;;;;;;7.80;99.90;;;;;;5081619;28;19932;-77
2023/02/11 12:00:21;;;;;;;;;;;7.70;99.90;;;;;;5090356;28;19923;-77
2023/02/11 12:03:06;;;;;;;;;;;7.90;99.90;;;;;;5085018;28;19925;-78
2023/02/11 12:05:36;;;;;;;;;;;8.40;99.90;;;;;;5084284;28;19923;-78
2023/02/11 12:08:02;;;;;;;;;;;8.60;99.90;;;;;;5086906;28;19912;-78
2023/02/11 12:10:34;;;;;;;;;;;8.70;99.90;;;;;;5097710;27;19965;-77
2023/02/11 12:13:00;;;;;;;;;;;8.70;99.90;;;;;;5077100;28;20358;-77
2023/02/11 12:15:29;;;;;;;;;;;8.60;99.90;;;;;;5083637;28;19917;-77
2023/02/11 12:18:04;;;;;;;;;;;8.60;99.90;;;;;;5083735;28;19916;-74
2023/02/11 12:20:35;;;;;;;;;;;8.60;99.90;;;;;;5091892;28;20386;-77
2023/02/11 12:23:01;;;;;;;;;;;8.60;99.90;;;;;;5085361;28;20286;-76
2023/02/11 12:25:40;;;;;;;;;;;8.60;99.90;;;;;;5090019;28;19916;-77
2023/02/11 12:28:12;;;;;;;;;;;8.30;99.90;;;;;;5097552;28;19912;-75
2023/02/11 12:30:38;;;;;;;;;;;8.20;99.90;;;;;;5085030;28;19917;-75
2023/02/11 12:33:13;;;;;;;;;;;8.10;99.90;;;;;;5085890;28;19920;-77
2023/02/11 12:36:01;;;;;;;;;;;8.00;99.90;;;;;;5081612;28;19916;-76
2023/02/11 12:38:27;;;;;;;;;;;7.90;99.90;;;;;;5091998;28;20366;-76
2023/02/11 12:41:09;;;;;;;;;;;8.00;99.90;;;;;;5090903;28;20042;-76
2023/02/11 12:43:36;;;;;;;;;;;8.00;99.90;;;;;;5100967;27;19912;-76
2023/02/11 12:46:02;;;;;;;;;;;8.00;99.90;;;;;;5084307;28;19912;-76
2023/02/11 12:48:36;;;;;;;;;;;7.90;99.90;;;;;;5088253;28;20127;-76
2023/02/11 12:51:09;;;;;;;;;;;7.90;99.90;;;;;;5097082;27;19919;-74
2023/02/11 12:53:43;;;;;;;;;;;7.90;99.90;;;;;;5083402;28;20373;-74
2023/02/11 12:56:13;;;;;;;;;;;7.90;99.90;;;;;;5079673;28;19916;-76
2023/02/11 12:58:40;;;;;;;;;;;7.90;99.90;;;;;;5083699;28;20357;-75
2023/02/11 13:01:09;;;;;;;;;;;7.80;99.90;;;;;;5087196;28;19920;-77
2023/02/11 13:04:04;;;;;;;;;;;7.70;99.90;;;;;;5075193;28;19920;-75
2023/02/11 13:06:54;;;;;;;;;;;7.80;99.90;;;;;;5077228;28;19912;-76
2023/02/11 13:09:40;;;;;;;;;;;7.80;99.90;;;;;;5087181;28;19912;-79
2023/02/11 13:14:57;;;;;;;;;;;7.80;99.90;;;;;;5092572;28;19916;-75
2023/02/11 13:17:36;;;;;;;;;;;7.80;99.90;;;;;;5081345;28;19909;-74
2023/02/11 13:20:17;;;;;;;;;;;7.90;99.90;;;;;;5091486;27;19919;-74
2023/02/11 13:22:47;;;;;;;;;;;8.00;99.90;;;;;;5097100;28;19911;-74
2023/02/11 13:25:50;;;;;;;;;;;8.00;99.90;;;;;;5078317;28;19919;-75
2023/02/11 13:28:27;;;;;;;;;;;8.00;99.90;;;;;;5031354;28;20401;-75
2023/02/11 13:31:01;;;;;;;;;;;7.70;99.90;;;;;;5079241;28;19919;-80
2023/02/11 13:33:44;;;;;;;;;;;7.90;99.90;;;;;;5082809;28;20119;-79
2023/02/11 13:36:13;;;;;;;;;;;7.90;99.90;;;;;;5083240;28;19974;-78
2023/02/11 13:38:39;;;;;;;;;;;8.00;99.90;;;;;;5090349;28;20276;-79
2023/02/11 13:41:26;;;;;;;;;;;8.00;99.90;;;;;;5083726;28;19908;-79
2023/02/11 13:44:00;;;;;;;;;;;7.90;99.90;;;;;;5086523;28;20360;-78
2023/02/11 13:46:28;;;;;;;;;;;7.80;99.90;;;;;;5085733;28;19912;-78
2023/02/11 13:48:54;;;;;;;;;;;7.70;99.90;;;;;;5083254;28;19908;-79
2023/02/11 13:51:33;;;;;;;;;;;7.70;99.90;;;;;;5081522;28;19912;-81
2023/02/11 13:53:59;;;;;;;;;;;7.70;99.90;;;;;;5074227;28;19924;-78
2023/02/11 13:56:36;;;;;;;;;;;7.50;99.90;;;;;;5077248;28;19912;-80
2023/02/11 13:59:30;;;;;;;;;;;7.50;99.90;;;;;;5090635;28;19916;-78
2023/02/11 14:10:48;;;;;;;;;;;7.60;99.90;;;;;;5093465;28;19912;-80
2023/02/11 14:13:24;;;;;;;;;;;7.50;99.90;;;;;;5089260;28;19912;-80
2023/02/11 14:16:07;;;;;;;;;;;7.60;99.90;;;;;;5090273;28;19916;-81
2023/02/11 14:18:33;;;;;;;;;;;7.60;99.90;;;;;;5106424;27;19919;-81
2023/02/11 14:21:08;;;;;;;;;;;7.50;99.90;;;;;;5081373;27;20345;-80
2023/02/11 14:23:36;;;;;;;;;;;7.50;99.90;;;;;;5102895;28;19912;-80
2023/02/11 14:26:06;;;;;;;;;;;7.50;99.90;;;;;;5079156;28;19909;-81
2023/02/11 14:28:33;;;;;;;;;;;7.50;99.90;;;;;;5090873;28;19912;-81
2023/02/11 14:31:07;;;;;;;;;;;7.50;99.90;;;;;;5083683;28;19923;-82
2023/02/11 14:34:02;;;;;;;;;;;7.60;99.90;;;;;;5090097;28;19920;-80
2023/02/11 14:36:28;;;;;;;;;;;7.60;99.90;;;;;;5044516;28;20271;-80
2023/02/11 14:38:57;;;;;;;;;;;7.60;99.90;;;;;;5078060;28;19977;-82
2023/02/11 14:41:25;;;;;;;;;;;7.50;99.90;;;;;;5080941;28;19916;-81
2023/02/11 14:43:52;;;;;;;;;;;7.50;99.90;;;;;;5111242;27;19913;-81
2023/02/11 14:46:19;;;;;;;;;;;7.50;99.90;;;;;;5082429;28;19914;-81
2023/02/11 14:48:47;;;;;;;;;;;7.40;99.90;;;;;;5084918;28;20011;-81
2023/02/11 14:51:30;;;;;;;;;;;7.40;99.90;;;;;;5087928;28;20250;-81
2023/02/11 14:53:59;;;;;;;;;;;7.40;99.90;;;;;;5091572;28;19916;-80
2023/02/11 14:56:29;;;;;;;;;;;7.40;99.90;;;;;;5070949;28;19919;-79
2023/02/11 14:58:56;;;;;;;;;;;7.40;99.90;;;;;;5073618;28;19916;-81
2023/02/11 15:01:39;;;;;;;;;;;7.40;99.90;;;;;;5080043;28;20396;-80